Terminal Aerodrome Forecast
Issued by NWS Binghamton, NY

Home | Current Version | Previous Version | Text Only | Print | Product List | Glossary On
Versions: 1 2 3 4 5 6 7 8 9 10 11 12 13 14 15 16 17 18 19 20
000
FTUS41 KBGM 010900 AAA
TAFAVP
TAF AMD
KAVP 010901Z 0109/0206 13003KT P6SM FEW080 SCT250
     FM011300 20007KT P6SM SCT050 BKN200
     FM012200 19005KT P6SM -SHRA OVC040=

USA.gov is the U.S. government's official web portal to all federal, state and local government web resources and services.